Terminal Aerodrome Forecast
Issued by NWS

Home | Current Version | Previous Version | Text Only | Print | Product List | Glossary On
Versions: 1 2 3 4 5 6 7 8 9 10 11 12 13 14 15 16 17 18 19 20 21 22 23 24 25 26 27 28 29 30 31 32 33 34 35 36 37 38 39 40 41 42 43
000
FTUS45 KBOU 311658 AAC
TAFAPA
TAF AMD
KAPA 311658Z 3117/0112 04009KT P6SM SCT120 BKN200
     FM312000 35012KT P6SM VCTS SCT080CB BKN130
      TEMPO 3120/3124 VRB18G30KT BKN080CB
     FM010000 35012KT P6SM SCT080 SCT130
     FM010400 VRB04KT P6SM SCT100=

USA.gov is the U.S. government's official web portal to all federal, state and local government web resources and services.